Aeroporto :
LOGIN :

Iscrizione | Disclaimer

   EN    FR    IT 

 










Sommario :    VFR   VFR Marginale   IFR   IFR Intensivo   IFR Molto Intensivo
Visibilità : 
Base nubi : 
>= 8 km
>= 3000ft
5 / 8 km
1000 / 3000 ft
1500m / 5 km
500 / 1000 ft
800 / 1500m
200 / 500 ft
< 800m
< 200 ft
Simboli :   Temporali  Nebbia  Neve Forte  Precipitazioni Forti  Vento > 20 kt
SIGMETs :   Varie  Temporali  Ghiacco  Turbolenza  Onda orograficha  Ceneri Vulcaniche






- Altitudine del aeroporto : 3381 ft
- Codice IATA : KYA


LTAN - Konya AB

ULTIMO METAR :
  • 280850Z VRB02KT CAVOK 27/09 Q1024 NOSIG

METARs OBSOLETI :
  • 280750Z 17004KT 110V200 CAVOK 25/10 Q1024 NOSIG
  • 280650Z 00000KT CAVOK 23/10 Q1024 NOSIG

TAF TAF LTAN
Valido dal 28 a 09 ore il 28 a 18 ore UTC


280740Z 2809/2818 VRB02KT CAVOK
BECMG 2810/2812 36012KT



MetMap, La meteo Aeronautica in un colpo d'occhio ! - Copyright ORBIFLY Dicembre 2007 - Disclaimer

ORBIFLY MET'MAP TEAM :

Programmazione e sviluppo : Alexandra Zaïnal
Concezione : Baudouin d'Aumeries
Aiuto per la programmazione : Marc-Olivier Méhu
Supporto tecnico e logistico : Manuel Goepfert
Aiuto per la traduzione : Arnaldo La Scala

Contatto : metmap@orbifly.com




FONTI E CREDITI :

   NOAA